Time;durP1;ratioP1;P1;durP2;ratioP2;P2;SDS_P1;SDS_P2;PMS_P1;PMS_P2;Temp;Humidity;BMP_temperature;BMP_pressure;BME280_temperature;BME280_humidity;BME280_pressure;Samples;Min_cycle;Max_cycle;Signal;HPM_P1;HPM_P2
2023/12/08 00:00:28;;;;;;;35.72;19.35;;;;;;;;;;2081918;28;20057;-78
2023/12/08 00:01:49;;;;;;;37.63;20.30;;;;;;;;;;2086783;28;20060;-78
2023/12/08 00:03:10;;;;;;;33.70;19.98;;;;;;;;;;2080350;28;20033;-77
2023/12/08 00:04:31;;;;;;;34.13;20.85;;;;;;;;;;2075557;28;20091;-77
2023/12/08 00:05:52;;;;;;;37.67;21.40;;;;;;;;;;2076158;28;20053;-77
2023/12/08 00:07:13;;;;;;;35.40;20.65;;;;;;;;;;2078642;28;20026;-77
2023/12/08 00:08:34;;;;;;;38.15;21.75;;;;;;;;;;2080129;28;20026;-78
2023/12/08 00:09:55;;;;;;;31.98;19.90;;;;;;;;;;2081787;28;20033;-78
2023/12/08 00:11:16;;;;;;;36.97;19.85;;;;;;;;;;2084918;28;20036;-79
2023/12/08 00:12:37;;;;;;;34.33;20.35;;;;;;;;;;2079171;28;20402;-79
2023/12/08 00:13:58;;;;;;;30.77;19.85;;;;;;;;;;2078014;28;20033;-78
2023/12/08 00:15:18;;;;;;;38.95;20.75;;;;;;;;;;2076410;28;20036;-78
2023/12/08 00:16:41;;;;;;;41.03;22.05;;;;;;;;;;2078463;28;20438;-78
2023/12/08 00:18:04;;;;;;;;;;;;;;;;;;2075335;28;20133;-77
2023/12/08 00:19:25;;;;;;;37.90;20.48;;;;;;;;;;2080791;28;19920;-77
2023/12/08 00:20:46;;;;;;;31.10;19.38;;;;;;;;;;2081488;28;20041;-78
2023/12/08 00:22:07;;;;;;;31.02;20.42;;;;;;;;;;2075820;28;20029;-78
2023/12/08 00:23:28;;;;;;;35.88;21.88;;;;;;;;;;2079743;28;20103;-76
2023/12/08 00:24:50;;;;;;;34.00;21.98;;;;;;;;;;2077695;28;20091;-78
2023/12/08 00:26:12;;;;;;;35.80;22.30;;;;;;;;;;2078799;28;20034;-77
2023/12/08 00:27:33;;;;;;;36.00;20.95;;;;;;;;;;2077832;28;20026;-78
2023/12/08 00:28:54;;;;;;;34.53;21.17;;;;;;;;;;2081830;28;20401;-77
2023/12/08 00:30:15;;;;;;;37.72;20.70;;;;;;;;;;2075107;28;20627;-78
2023/12/08 00:31:36;;;;;;;33.15;19.52;;;;;;;;;;2079792;28;21211;-77
2023/12/08 00:32:56;;;;;;;39.17;20.98;;;;;;;;;;2078001;28;20080;-76
2023/12/08 00:34:18;;;;;;;34.60;19.17;;;;;;;;;;2079789;28;20033;-78
2023/12/08 00:35:38;;;;;;;39.30;23.13;;;;;;;;;;2078309;28;20041;-78
2023/12/08 00:36:59;;;;;;;37.63;22.17;;;;;;;;;;2078657;28;20088;-78
2023/12/08 00:38:20;;;;;;;34.75;19.85;;;;;;;;;;2078110;28;20041;-77
2023/12/08 00:39:41;;;;;;;34.20;19.90;;;;;;;;;;2079197;28;20037;-78
2023/12/08 00:41:02;;;;;;;31.98;20.02;;;;;;;;;;2073781;28;20025;-77
2023/12/08 00:42:23;;;;;;;37.85;22.73;;;;;;;;;;2079421;28;20072;-78
2023/12/08 00:43:44;;;;;;;34.70;21.85;;;;;;;;;;2077985;28;20038;-78
2023/12/08 00:45:05;;;;;;;36.10;20.80;;;;;;;;;;2078368;28;20071;-78
2023/12/08 00:46:26;;;;;;;36.95;21.73;;;;;;;;;;2076202;28;20056;-77
2023/12/08 00:47:47;;;;;;;35.08;20.70;;;;;;;;;;2081149;28;20049;-78
2023/12/08 00:49:08;;;;;;;33.47;20.50;;;;;;;;;;2079129;28;20425;-79
2023/12/08 00:50:29;;;;;;;34.28;19.98;;;;;;;;;;2080291;28;20044;-78
2023/12/08 00:51:49;;;;;;;30.95;20.05;;;;;;;;;;2082631;28;20040;-78
2023/12/08 00:53:10;;;;;;;40.35;20.58;;;;;;;;;;2083430;28;20033;-78
2023/12/08 00:54:31;;;;;;;33.85;20.35;;;;;;;;;;2083729;28;20030;-77
2023/12/08 00:55:53;;;;;;;32.33;19.10;;;;;;;;;;2082946;28;20520;-78
2023/12/08 00:57:14;;;;;;;36.83;19.33;;;;;;;;;;2083189;28;20049;-79
2023/12/08 00:58:36;;;;;;;32.50;19.77;;;;;;;;;;2080949;28;20030;-78
2023/12/08 00:59:57;;;;;;;32.95;18.00;;;;;;;;;;2088145;28;20442;-78
2023/12/08 01:01:19;;;;;;;32.42;19.65;;;;;;;;;;2089376;28;20056;-77
2023/12/08 01:02:40;;;;;;;31.77;17.88;;;;;;;;;;2076584;28;20069;-78
2023/12/08 01:04:01;;;;;;;32.15;19.00;;;;;;;;;;2078931;28;20022;-78
2023/12/08 01:05:22;;;;;;;38.97;19.38;;;;;;;;;;2083448;28;20033;-79
2023/12/08 01:06:43;;;;;;;33.95;18.73;;;;;;;;;;2082610;28;20029;-79
2023/12/08 01:08:04;;;;;;;30.98;19.52;;;;;;;;;;2083768;28;20037;-78
2023/12/08 01:09:25;;;;;;;35.17;19.25;;;;;;;;;;2081553;28;20421;-78
2023/12/08 01:10:46;;;;;;;33.28;18.60;;;;;;;;;;2075584;28;20374;-78
2023/12/08 01:12:07;;;;;;;31.15;19.13;;;;;;;;;;2079972;28;20060;-79
2023/12/08 01:13:28;;;;;;;36.22;20.08;;;;;;;;;;2072191;28;20053;-78
2023/12/08 01:14:49;;;;;;;32.20;20.00;;;;;;;;;;2075587;28;20038;-78
2023/12/08 01:16:10;;;;;;;36.08;19.58;;;;;;;;;;2075993;28;20030;-78
2023/12/08 01:17:31;;;;;;;34.70;20.73;;;;;;;;;;2076330;28;20030;-78
2023/12/08 01:18:52;;;;;;;36.05;21.48;;;;;;;;;;2078770;28;20029;-78
2023/12/08 01:20:13;;;;;;;31.80;20.05;;;;;;;;;;2084518;28;20037;-79
2023/12/08 01:21:38;;;;;;;31.35;20.58;;;;;;;;;;2079203;28;20033;-78
2023/12/08 01:22:59;;;;;;;37.83;20.98;;;;;;;;;;2078390;28;20033;-77
2023/12/08 01:24:19;;;;;;;36.60;20.35;;;;;;;;;;2078183;28;20056;-77
2023/12/08 01:25:40;;;;;;;32.35;21.00;;;;;;;;;;2077720;28;20082;-78
2023/12/08 01:27:01;;;;;;;37.17;19.75;;;;;;;;;;2076107;28;20041;-78
2023/12/08 01:28:22;;;;;;;33.45;19.10;;;;;;;;;;2079286;28;20335;-80
2023/12/08 01:29:43;;;;;;;33.50;21.05;;;;;;;;;;2079149;28;20060;-77
2023/12/08 01:31:04;;;;;;;36.67;21.17;;;;;;;;;;2080234;28;20057;-78
2023/12/08 01:32:25;;;;;;;35.50;20.95;;;;;;;;;;2078085;28;20139;-78
2023/12/08 01:33:46;;;;;;;34.95;20.92;;;;;;;;;;2078067;28;20049;-77
2023/12/08 01:35:07;;;;;;;36.38;20.33;;;;;;;;;;2077498;28;20096;-78
2023/12/08 01:36:28;;;;;;;30.87;19.07;;;;;;;;;;2080075;28;20025;-78
2023/12/08 01:37:49;;;;;;;35.13;20.25;;;;;;;;;;2076977;28;20502;-77
2023/12/08 01:39:10;;;;;;;33.47;20.40;;;;;;;;;;2080800;28;20293;-78
2023/12/08 01:40:31;;;;;;;33.38;19.35;;;;;;;;;;2077584;28;20075;-78
2023/12/08 01:41:52;;;;;;;35.28;20.75;;;;;;;;;;2077606;28;20045;-78
2023/12/08 01:43:13;;;;;;;30.88;18.98;;;;;;;;;;2077711;28;20089;-77
2023/12/08 01:44:34;;;;;;;31.23;19.17;;;;;;;;;;2077942;28;20064;-78
2023/12/08 01:45:56;;;;;;;34.70;21.48;;;;;;;;;;2077762;28;20048;-77
2023/12/08 01:47:17;;;;;;;;;;;;;;;;;;2078999;28;20052;-78
2023/12/08 01:48:38;;;;;;;31.75;19.52;;;;;;;;;;2080359;28;19925;-76
2023/12/08 01:49:59;;;;;;;34.28;18.67;;;;;;;;;;2082233;28;20075;-78
2023/12/08 01:51:20;;;;;;;36.03;19.80;;;;;;;;;;2083358;28;20033;-77
2023/12/08 01:52:42;;;;;;;36.38;20.67;;;;;;;;;;2081260;28;20473;-78
2023/12/08 01:54:04;;;;;;;34.85;20.00;;;;;;;;;;2083687;28;20025;-77
2023/12/08 01:55:25;;;;;;;25.92;17.58;;;;;;;;;;2083863;28;20040;-78
2023/12/08 01:56:46;;;;;;;28.88;17.48;;;;;;;;;;2090140;28;20043;-77
2023/12/08 01:58:07;;;;;;;32.53;18.80;;;;;;;;;;2082185;28;20041;-77
2023/12/08 01:59:28;;;;;;;36.50;18.92;;;;;;;;;;2084275;28;20040;-77
2023/12/08 02:00:49;;;;;;;35.10;20.02;;;;;;;;;;2082405;28;20408;-77
2023/12/08 02:02:10;;;;;;;32.95;17.70;;;;;;;;;;2083483;28;20453;-77
2023/12/08 02:03:33;;;;;;;36.40;18.85;;;;;;;;;;2082677;28;20036;-77
2023/12/08 02:04:56;;;;;;;31.48;19.15;;;;;;;;;;2083700;28;20453;-77
2023/12/08 02:06:20;;;;;;;31.45;18.75;;;;;;;;;;2082743;28;20163;-77
2023/12/08 02:07:41;;;;;;;33.63;19.92;;;;;;;;;;2081662;28;20026;-77
2023/12/08 02:09:02;;;;;;;32.15;19.40;;;;;;;;;;2078083;28;20405;-77
2023/12/08 02:10:23;;;;;;;34.40;19.48;;;;;;;;;;2075662;28;20096;-77
2023/12/08 02:11:44;;;;;;;32.35;18.60;;;;;;;;;;2074539;28;20018;-77
2023/12/08 02:13:05;;;;;;;35.75;21.08;;;;;;;;;;2086621;28;20041;-77
2023/12/08 02:14:26;;;;;;;36.83;19.25;;;;;;;;;;2082878;28;20033;-77
2023/12/08 02:15:49;;;;;;;31.02;18.60;;;;;;;;;;2078061;28;20026;-77
2023/12/08 02:17:14;;;;;;;32.28;19.23;;;;;;;;;;2089061;28;20037;-76
2023/12/08 02:18:37;;;;;;;41.85;19.42;;;;;;;;;;2083123;28;20048;-76
2023/12/08 02:19:58;;;;;;;38.05;21.60;;;;;;;;;;2079331;28;20512;-76
2023/12/08 02:21:19;;;;;;;39.53;22.48;;;;;;;;;;2079218;28;20038;-76
2023/12/08 02:22:39;;;;;;;40.63;22.10;;;;;;;;;;2075658;28;20034;-76
2023/12/08 02:24:00;;;;;;;32.63;19.67;;;;;;;;;;2075008;28;20049;-76
2023/12/08 02:25:21;;;;;;;34.72;19.50;;;;;;;;;;2076131;28;20109;-76
2023/12/08 02:26:43;;;;;;;40.05;21.42;;;;;;;;;;2076534;28;20045;-76
2023/12/08 02:28:05;;;;;;;35.17;21.30;;;;;;;;;;2079940;28;20045;-76
2023/12/08 02:29:26;;;;;;;;;;;;;;;;;;2076284;28;20045;-76
2023/12/08 02:30:48;;;;;;;34.63;21.30;;;;;;;;;;2074283;28;20385;-77
2023/12/08 02:32:15;;;;;;;38.25;20.40;;;;;;;;;;2077539;28;20087;-76
2023/12/08 02:33:36;;;;;;;41.83;19.52;;;;;;;;;;2077565;28;20446;-77
2023/12/08 02:34:58;;;;;;;37.55;21.85;;;;;;;;;;2084076;28;20107;-76
2023/12/08 02:36:20;;;;;;;32.83;18.40;;;;;;;;;;2079672;28;20072;-77
2023/12/08 02:37:44;;;;;;;32.40;18.10;;;;;;;;;;2077763;28;20083;-76
2023/12/08 02:39:07;;;;;;;34.40;20.73;;;;;;;;;;2078378;28;20386;-76
2023/12/08 02:40:28;;;;;;;35.15;19.38;;;;;;;;;;2078631;28;20029;-77
2023/12/08 02:41:50;;;;;;;35.88;21.42;;;;;;;;;;2078700;28;20021;-76
2023/12/08 02:43:11;;;;;;;36.25;20.85;;;;;;;;;;2079105;28;20040;-76
2023/12/08 02:44:32;;;;;;;37.30;21.88;;;;;;;;;;2077782;28;20030;-76
2023/12/08 02:45:53;;;;;;;36.55;21.70;;;;;;;;;;2077462;28;20480;-76
2023/12/08 02:47:14;;;;;;;40.40;23.75;;;;;;;;;;2078024;28;20046;-76
2023/12/08 02:48:34;;;;;;;34.30;20.23;;;;;;;;;;2076878;28;20080;-76
2023/12/08 02:49:55;;;;;;;34.20;19.35;;;;;;;;;;2078947;28;20490;-76
2023/12/08 02:51:16;;;;;;;34.13;20.05;;;;;;;;;;2076556;28;20120;-76
2023/12/08 02:52:37;;;;;;;30.90;19.27;;;;;;;;;;2076047;28;20033;-76
2023/12/08 02:53:58;;;;;;;35.00;20.27;;;;;;;;;;2082426;28;20041;-76
2023/12/08 02:55:19;;;;;;;39.95;21.13;;;;;;;;;;2076938;28;20442;-76
2023/12/08 02:56:40;;;;;;;40.90;21.90;;;;;;;;;;2076024;28;20050;-77
2023/12/08 02:58:01;;;;;;;37.58;21.25;;;;;;;;;;2076730;28;20037;-76
2023/12/08 02:59:21;;;;;;;34.33;22.02;;;;;;;;;;2074156;28;20034;-76
2023/12/08 03:00:42;;;;;;;47.75;23.48;;;;;;;;;;2075177;28;20030;-76
2023/12/08 03:02:03;;;;;;;39.50;23.73;;;;;;;;;;2075861;28;20548;-76
2023/12/08 03:03:24;;;;;;;37.50;22.27;;;;;;;;;;2083467;28;20048;-76
2023/12/08 03:04:45;;;;;;;36.40;20.95;;;;;;;;;;2076027;28;20121;-76
2023/12/08 03:06:06;;;;;;;35.40;21.70;;;;;;;;;;2073370;28;20038;-76
2023/12/08 03:07:27;;;;;;;37.20;21.55;;;;;;;;;;2080664;28;20045;-76
2023/12/08 03:08:48;;;;;;;31.85;20.10;;;;;;;;;;2076474;28;20033;-76
2023/12/08 03:10:09;;;;;;;38.35;22.73;;;;;;;;;;2071881;28;20033;-76
2023/12/08 03:11:30;;;;;;;37.88;21.83;;;;;;;;;;2072480;28;20057;-76
2023/12/08 03:12:51;;;;;;;45.80;22.35;;;;;;;;;;2074496;28;20115;-76
2023/12/08 03:14:12;;;;;;;36.70;21.42;;;;;;;;;;2075013;28;20167;-76
2023/12/08 03:15:32;;;;;;;39.72;22.42;;;;;;;;;;2075966;28;20500;-76
2023/12/08 03:16:53;;;;;;;41.72;22.55;;;;;;;;;;2075921;28;20083;-76
2023/12/08 03:18:14;;;;;;;45.10;23.42;;;;;;;;;;2076239;28;20500;-76
2023/12/08 03:19:35;;;;;;;35.55;20.42;;;;;;;;;;2075787;28;20041;-76
2023/12/08 03:20:56;;;;;;;36.92;22.40;;;;;;;;;;2074971;28;20037;-76
2023/12/08 03:22:17;;;;;;;36.28;20.00;;;;;;;;;;2075752;28;20057;-76
2023/12/08 03:23:38;;;;;;;42.00;22.00;;;;;;;;;;2068156;28;20468;-76
2023/12/08 03:24:59;;;;;;;41.20;21.90;;;;;;;;;;2068035;28;20088;-76
2023/12/08 03:26:20;;;;;;;35.05;20.50;;;;;;;;;;2067898;28;20038;-76
2023/12/08 03:27:40;;;;;;;36.95;20.95;;;;;;;;;;2068843;28;20092;-76
2023/12/08 03:29:01;;;;;;;35.95;22.60;;;;;;;;;;2066968;28;20096;-76
2023/12/08 03:30:22;;;;;;;34.58;19.70;;;;;;;;;;2072550;28;20033;-75
2023/12/08 03:31:43;;;;;;;34.50;21.10;;;;;;;;;;2077278;28;20140;-75
2023/12/08 03:33:04;;;;;;;36.60;21.20;;;;;;;;;;2074561;28;20080;-76
2023/12/08 03:34:25;;;;;;;39.33;22.13;;;;;;;;;;2069554;28;20170;-76
2023/12/08 03:35:46;;;;;;;42.30;24.88;;;;;;;;;;2070871;28;20038;-76
2023/12/08 03:37:07;;;;;;;39.97;21.30;;;;;;;;;;2075063;28;20558;-76
2023/12/08 03:38:28;;;;;;;43.47;22.08;;;;;;;;;;2073020;28;20041;-76
2023/12/08 03:39:49;;;;;;;39.47;22.52;;;;;;;;;;2076612;28;20037;-76
2023/12/08 03:41:10;;;;;;;45.42;23.65;;;;;;;;;;2070548;28;20099;-76
2023/12/08 03:42:36;;;;;;;42.42;23.33;;;;;;;;;;2067150;28;20037;-76
2023/12/08 03:43:57;;;;;;;40.35;22.88;;;;;;;;;;2065403;28;20100;-76
2023/12/08 03:45:18;;;;;;;34.45;21.50;;;;;;;;;;2066483;28;20489;-76
2023/12/08 03:46:42;;;;;;;45.15;22.67;;;;;;;;;;2074686;28;20046;-76
2023/12/08 03:48:03;;;;;;;38.25;22.63;;;;;;;;;;2069352;28;20034;-76
2023/12/08 03:49:23;;;;;;;46.20;22.45;;;;;;;;;;2071861;28;20405;-76
2023/12/08 03:50:44;;;;;;;39.50;20.30;;;;;;;;;;2077152;28;20030;-76
2023/12/08 03:52:05;;;;;;;37.55;20.13;;;;;;;;;;2074366;28;20030;-76
2023/12/08 03:53:26;;;;;;;40.10;21.42;;;;;;;;;;2075165;28;20034;-77
2023/12/08 03:54:47;;;;;;;43.35;22.50;;;;;;;;;;2073335;28;20025;-76
2023/12/08 03:56:08;;;;;;;40.45;21.13;;;;;;;;;;2069445;28;20026;-76
2023/12/08 03:57:29;;;;;;;41.40;22.05;;;;;;;;;;2076211;28;20366;-76
2023/12/08 03:58:50;;;;;;;52.33;24.75;;;;;;;;;;2071039;28;20474;-76
2023/12/08 04:00:11;;;;;;;37.35;21.05;;;;;;;;;;2065140;28;20057;-76
2023/12/08 04:01:32;;;;;;;38.22;21.13;;;;;;;;;;2067363;28;21419;-76
2023/12/08 04:02:53;;;;;;;40.83;22.80;;;;;;;;;;2066962;28;20346;-76
2023/12/08 04:04:14;;;;;;;42.33;22.20;;;;;;;;;;2076473;28;20083;-75
2023/12/08 04:05:34;;;;;;;43.08;23.95;;;;;;;;;;2069893;28;20457;-76
2023/12/08 04:06:56;;;;;;;43.08;22.17;;;;;;;;;;2064653;28;20108;-76
2023/12/08 04:08:17;;;;;;;44.13;23.83;;;;;;;;;;2066889;28;20088;-76
2023/12/08 04:09:38;;;;;;;44.95;22.98;;;;;;;;;;2067431;28;20482;-77
2023/12/08 04:10:59;;;;;;;43.85;23.92;;;;;;;;;;2068600;28;20104;-76
2023/12/08 04:12:20;;;;;;;44.15;23.30;;;;;;;;;;2062719;28;20042;-76
2023/12/08 04:13:41;;;;;;;42.55;23.58;;;;;;;;;;2064647;28;20041;-76
2023/12/08 04:15:03;;;;;;;43.15;21.48;;;;;;;;;;2077508;28;20068;-76
2023/12/08 04:16:23;;;;;;;41.40;21.52;;;;;;;;;;2069305;28;20088;-76
2023/12/08 04:17:44;;;;;;;38.08;21.73;;;;;;;;;;2065913;28;20084;-76
2023/12/08 04:19:05;;;;;;;37.10;21.95;;;;;;;;;;2066761;28;20034;-76
2023/12/08 04:20:26;;;;;;;45.55;23.30;;;;;;;;;;2078428;28;20049;-76
2023/12/08 04:21:47;;;;;;;43.47;21.65;;;;;;;;;;2075949;28;20404;-76
2023/12/08 04:23:08;;;;;;;49.10;23.85;;;;;;;;;;2071327;28;20063;-76
2023/12/08 04:24:29;;;;;;;44.95;22.85;;;;;;;;;;2079127;28;20167;-76
2023/12/08 04:25:50;;;;;;;41.28;22.88;;;;;;;;;;2073857;28;20080;-76
2023/12/08 04:27:11;;;;;;;46.45;22.65;;;;;;;;;;2080027;28;20079;-76
2023/12/08 04:28:32;;;;;;;38.33;20.95;;;;;;;;;;2089433;28;20036;-76
2023/12/08 04:29:53;;;;;;;39.50;22.23;;;;;;;;;;2083192;28;20029;-76
2023/12/08 04:31:13;;;;;;;45.90;23.88;;;;;;;;;;2083545;28;20091;-76
2023/12/08 04:32:34;;;;;;;42.38;21.95;;;;;;;;;;2074801;28;20033;-76
2023/12/08 04:33:55;;;;;;;46.60;23.70;;;;;;;;;;2074035;28;20057;-76
2023/12/08 04:35:16;;;;;;;43.88;23.13;;;;;;;;;;2074920;28;20043;-76
2023/12/08 04:36:37;;;;;;;44.67;23.77;;;;;;;;;;2071566;28;20552;-76
2023/12/08 04:37:58;;;;;;;42.28;22.60;;;;;;;;;;2072810;28;20088;-77
2023/12/08 04:39:19;;;;;;;41.28;21.85;;;;;;;;;;2080480;28;20041;-76
2023/12/08 04:40:40;;;;;;;42.08;20.05;;;;;;;;;;2082834;28;20033;-77
2023/12/08 04:42:01;;;;;;;48.50;23.98;;;;;;;;;;2074106;28;20041;-76
2023/12/08 04:43:21;;;;;;;44.33;22.77;;;;;;;;;;2080813;28;20447;-77
2023/12/08 04:44:43;;;;;;;40.47;23.15;;;;;;;;;;2083883;28;20033;-77
2023/12/08 04:46:04;;;;;;;35.38;21.60;;;;;;;;;;2084833;28;20029;-76
2023/12/08 04:47:25;;;;;;;36.45;21.15;;;;;;;;;;2083800;28;20025;-75
2023/12/08 04:48:45;;;;;;;44.80;22.67;;;;;;;;;;2075650;28;20050;-76
2023/12/08 04:50:07;;;;;;;44.60;21.38;;;;;;;;;;2086708;28;20091;-75
2023/12/08 04:51:27;;;;;;;39.97;19.58;;;;;;;;;;2086887;28;20044;-75
2023/12/08 04:52:48;;;;;;;40.10;19.92;;;;;;;;;;2087343;28;20036;-76
2023/12/08 04:54:09;;;;;;;39.22;20.17;;;;;;;;;;2079734;28;20045;-76
2023/12/08 04:55:30;;;;;;;34.97;18.15;;;;;;;;;;2080252;28;20026;-75
2023/12/08 04:56:51;;;;;;;44.08;21.40;;;;;;;;;;2086657;28;20025;-76
2023/12/08 04:58:12;;;;;;;39.55;21.20;;;;;;;;;;2080484;28;20373;-76
2023/12/08 04:59:33;;;;;;;31.13;17.85;;;;;;;;;;2085969;28;20033;-76
2023/12/08 05:00:54;;;;;;;39.13;21.45;;;;;;;;;;2089327;28;20464;-76
2023/12/08 05:02:15;;;;;;;33.45;19.55;;;;;;;;;;2088433;28;20017;-76
2023/12/08 05:03:36;;;;;;;37.30;19.77;;;;;;;;;;2080181;28;20042;-76
2023/12/08 05:04:57;;;;;;;30.02;17.80;;;;;;;;;;2086187;28;20111;-76
2023/12/08 05:06:22;;;;;;;34.78;20.52;;;;;;;;;;2092114;28;20025;-76
2023/12/08 05:07:42;;;;;;;41.35;20.23;;;;;;;;;;2090937;28;20033;-77
2023/12/08 05:09:04;;;;;;;37.40;22.20;;;;;;;;;;2079517;28;20037;-76
2023/12/08 05:10:24;;;;;;;37.80;20.35;;;;;;;;;;2081973;28;20044;-76
2023/12/08 05:11:46;;;;;;;38.47;21.38;;;;;;;;;;2079671;28;20030;-76
2023/12/08 05:13:06;;;;;;;38.70;20.63;;;;;;;;;;2077856;28;20033;-76
2023/12/08 05:14:27;;;;;;;36.28;20.25;;;;;;;;;;2085285;28;20040;-76
2023/12/08 05:15:48;;;;;;;31.60;18.23;;;;;;;;;;2088100;28;20028;-76
2023/12/08 05:17:09;;;;;;;39.90;20.67;;;;;;;;;;2089079;28;20026;-76
2023/12/08 05:18:30;;;;;;;36.38;20.05;;;;;;;;;;2080230;28;20509;-76
2023/12/08 05:19:51;;;;;;;36.42;19.88;;;;;;;;;;2078006;28;20056;-76
2023/12/08 05:21:12;;;;;;;36.83;20.40;;;;;;;;;;2073780;28;20050;-76
2023/12/08 05:22:33;;;;;;;35.00;20.80;;;;;;;;;;2065939;28;20203;-76
2023/12/08 05:23:54;;;;;;;35.38;19.58;;;;;;;;;;2065765;28;20034;-76
2023/12/08 05:25:15;;;;;;;35.30;20.85;;;;;;;;;;2071758;28;20060;-76
2023/12/08 05:26:35;;;;;;;34.15;20.42;;;;;;;;;;2064796;28;20231;-76
2023/12/08 05:27:56;;;;;;;34.53;18.35;;;;;;;;;;2065431;28;20077;-77
2023/12/08 05:29:17;;;;;;;36.85;20.83;;;;;;;;;;2065655;28;20030;-77
2023/12/08 05:30:38;;;;;;;34.78;20.15;;;;;;;;;;2066329;28;20089;-76
2023/12/08 05:31:59;;;;;;;33.95;19.85;;;;;;;;;;2063338;28;20029;-76
2023/12/08 05:33:20;;;;;;;34.38;20.15;;;;;;;;;;2063210;28;20034;-76
2023/12/08 05:34:41;;;;;;;40.00;19.45;;;;;;;;;;2064154;28;20064;-77
2023/12/08 05:36:02;;;;;;;35.58;20.02;;;;;;;;;;2070291;28;20720;-76
2023/12/08 05:37:23;;;;;;;32.72;20.65;;;;;;;;;;2066796;28;20029;-76
2023/12/08 05:38:44;;;;;;;39.83;20.15;;;;;;;;;;2072823;28;20087;-77
2023/12/08 05:40:06;;;;;;;35.60;20.40;;;;;;;;;;2068042;28;20029;-77
2023/12/08 05:41:27;;;;;;;32.42;19.67;;;;;;;;;;2064981;28;20498;-76
2023/12/08 05:42:48;;;;;;;34.75;20.85;;;;;;;;;;2071843;28;21539;-76
2023/12/08 05:44:09;;;;;;;35.30;19.50;;;;;;;;;;2063779;28;20136;-76
2023/12/08 05:45:30;;;;;;;38.25;19.90;;;;;;;;;;2063422;28;20038;-76
2023/12/08 05:46:51;;;;;;;35.58;20.08;;;;;;;;;;2065751;28;20464;-76
2023/12/08 05:48:12;;;;;;;34.30;19.30;;;;;;;;;;2064515;28;20076;-76
2023/12/08 05:49:33;;;;;;;32.60;19.23;;;;;;;;;;2070297;28;20149;-77
2023/12/08 05:50:54;;;;;;;35.13;18.90;;;;;;;;;;2068272;28;20080;-76
2023/12/08 05:52:15;;;;;;;37.15;21.48;;;;;;;;;;2062957;28;20100;-77
2023/12/08 05:53:36;;;;;;;36.97;20.00;;;;;;;;;;2064053;28;20390;-75
2023/12/08 05:54:57;;;;;;;36.85;21.00;;;;;;;;;;2074596;28;20037;-76
2023/12/08 05:56:17;;;;;;;38.20;20.08;;;;;;;;;;2064771;28;20072;-76
2023/12/08 05:57:40;;;;;;;41.40;22.95;;;;;;;;;;2071398;28;20042;-77
2023/12/08 05:59:00;;;;;;;;;;;;;;;;;;2066447;28;20041;-77
2023/12/08 06:00:21;;;;;;;32.85;20.48;;;;;;;;;;2073617;28;19935;-76
2023/12/08 06:01:42;;;;;;;37.05;21.15;;;;;;;;;;2074250;28;20034;-76
2023/12/08 06:03:03;;;;;;;35.33;19.98;;;;;;;;;;2073060;28;20034;-76
2023/12/08 06:04:24;;;;;;;42.97;21.67;;;;;;;;;;2066308;28;20116;-77
2023/12/08 06:05:45;;;;;;;40.85;20.67;;;;;;;;;;2065391;28;20034;-76
2023/12/08 06:07:06;;;;;;;36.22;21.65;;;;;;;;;;2071377;28;20065;-76
2023/12/08 06:08:27;;;;;;;38.17;20.60;;;;;;;;;;2066325;28;20026;-76
2023/12/08 06:09:48;;;;;;;37.00;20.90;;;;;;;;;;2076389;28;20481;-77
2023/12/08 06:11:09;;;;;;;36.03;20.23;;;;;;;;;;2066748;28;20037;-76
2023/12/08 06:12:30;;;;;;;38.95;20.05;;;;;;;;;;2066372;28;20064;-77
2023/12/08 06:13:51;;;;;;;37.05;22.02;;;;;;;;;;2059364;28;20096;-77
2023/12/08 06:15:12;;;;;;;38.72;21.42;;;;;;;;;;2066548;28;20038;-76
2023/12/08 06:16:33;;;;;;;34.28;19.38;;;;;;;;;;2064524;28;20108;-77
2023/12/08 06:17:54;;;;;;;34.10;19.50;;;;;;;;;;2063199;28;20447;-77
2023/12/08 06:19:15;;;;;;;32.63;19.67;;;;;;;;;;2073054;28;20030;-77
2023/12/08 06:20:36;;;;;;;35.90;19.42;;;;;;;;;;2072823;28;20147;-77
2023/12/08 06:21:57;;;;;;;44.30;22.38;;;;;;;;;;2079941;28;20037;-76
2023/12/08 06:23:18;;;;;;;34.90;19.35;;;;;;;;;;2073031;28;20179;-77
2023/12/08 06:24:39;;;;;;;34.60;19.85;;;;;;;;;;2080151;28;20447;-77
2023/12/08 06:25:59;;;;;;;36.15;19.88;;;;;;;;;;2073752;28;20029;-77
2023/12/08 06:27:20;;;;;;;37.70;20.60;;;;;;;;;;2071857;28;20471;-76
2023/12/08 06:28:41;;;;;;;36.72;20.33;;;;;;;;;;2073627;28;20378;-77
2023/12/08 06:30:03;;;;;;;37.15;21.10;;;;;;;;;;2074382;28;20022;-77
2023/12/08 06:31:24;;;;;;;33.80;19.88;;;;;;;;;;2073666;28;20033;-76
2023/12/08 06:32:45;;;;;;;41.20;21.38;;;;;;;;;;2078687;28;20752;-76
2023/12/08 06:34:06;;;;;;;35.88;20.77;;;;;;;;;;2082658;28;20041;-77
2023/12/08 06:35:27;;;;;;;37.25;20.58;;;;;;;;;;2073304;28;20038;-77
2023/12/08 06:36:48;;;;;;;40.90;21.25;;;;;;;;;;2080611;28;20099;-76
2023/12/08 06:38:10;;;;;;;35.17;19.85;;;;;;;;;;2074299;28;20029;-76
2023/12/08 06:39:30;;;;;;;44.13;22.42;;;;;;;;;;2080944;28;20037;-76
2023/12/08 06:40:53;;;;;;;36.92;21.15;;;;;;;;;;2076012;28;20084;-77
2023/12/08 06:42:14;;;;;;;36.80;20.08;;;;;;;;;;2082511;28;20032;-76
2023/12/08 06:43:35;;;;;;;40.20;19.75;;;;;;;;;;2074436;28;20083;-76
2023/12/08 06:44:56;;;;;;;33.25;18.05;;;;;;;;;;2085119;28;20029;-76
2023/12/08 06:46:16;;;;;;;39.85;20.98;;;;;;;;;;2075495;28;20045;-77
2023/12/08 06:47:37;;;;;;;35.97;20.70;;;;;;;;;;2082091;28;20041;-78
2023/12/08 06:48:58;;;;;;;37.38;19.63;;;;;;;;;;2077757;28;20463;-77
2023/12/08 06:50:19;;;;;;;33.67;17.98;;;;;;;;;;2080212;28;20115;-77
2023/12/08 06:51:40;;;;;;;37.35;20.52;;;;;;;;;;2081107;28;20029;-77
2023/12/08 06:53:01;;;;;;;31.38;18.05;;;;;;;;;;2082728;28;20033;-77
2023/12/08 06:54:22;;;;;;;41.03;18.98;;;;;;;;;;2088418;28;20041;-77
2023/12/08 06:55:43;;;;;;;36.53;19.42;;;;;;;;;;2082219;28;20377;-77
2023/12/08 06:57:04;;;;;;;36.28;19.73;;;;;;;;;;2088674;28;20044;-77
2023/12/08 06:58:25;;;;;;;35.97;19.02;;;;;;;;;;2089498;28;20017;-76
2023/12/08 06:59:46;;;;;;;41.42;20.05;;;;;;;;;;2081292;28;20034;-77
2023/12/08 07:01:07;;;;;;;39.00;20.85;;;;;;;;;;2084106;28;20030;-76
2023/12/08 07:02:27;;;;;;;35.95;20.08;;;;;;;;;;2086585;28;20044;-77
2023/12/08 07:03:48;;;;;;;41.38;21.70;;;;;;;;;;2072446;28;20152;-76
2023/12/08 07:05:09;;;;;;;38.30;20.77;;;;;;;;;;2078605;28;20099;-77
2023/12/08 07:06:30;;;;;;;39.88;20.30;;;;;;;;;;2075733;28;20021;-77
2023/12/08 07:07:51;;;;;;;40.22;19.42;;;;;;;;;;2075178;28;20033;-77
2023/12/08 07:09:12;;;;;;;41.88;20.83;;;;;;;;;;2072575;28;20034;-76
2023/12/08 07:10:33;;;;;;;43.90;21.23;;;;;;;;;;2079089;28;20029;-77
2023/12/08 07:11:54;;;;;;;31.98;17.70;;;;;;;;;;2073874;28;20022;-76
2023/12/08 07:13:15;;;;;;;38.70;18.73;;;;;;;;;;2072714;28;20037;-76
2023/12/08 07:14:36;;;;;;;50.45;23.48;;;;;;;;;;2076837;28;20453;-77
2023/12/08 07:15:56;;;;;;;43.42;20.45;;;;;;;;;;2086154;28;20033;-78
2023/12/08 07:17:17;;;;;;;35.95;18.70;;;;;;;;;;2074252;28;20113;-77
2023/12/08 07:18:38;;;;;;;40.05;20.17;;;;;;;;;;2076134;28;20026;-78
2023/12/08 07:19:59;;;;;;;46.90;20.75;;;;;;;;;;2073585;28;20042;-77
2023/12/08 07:21:20;;;;;;;40.20;20.70;;;;;;;;;;2074650;28;20103;-77
2023/12/08 07:22:41;;;;;;;38.10;19.65;;;;;;;;;;2081438;28;20037;-77
2023/12/08 07:24:02;;;;;;;37.45;19.55;;;;;;;;;;2076428;28;20033;-77
2023/12/08 07:25:24;;;;;;;40.50;19.35;;;;;;;;;;2075726;28;20068;-77
2023/12/08 07:26:45;;;;;;;45.55;19.58;;;;;;;;;;2079771;28;20040;-77
2023/12/08 07:28:06;;;;;;;36.40;17.27;;;;;;;;;;2082800;28;20406;-76
2023/12/08 07:29:27;;;;;;;36.72;17.85;;;;;;;;;;2081073;28;20397;-77
2023/12/08 07:30:48;;;;;;;50.63;21.25;;;;;;;;;;2073621;28;20042;-76
2023/12/08 07:32:10;;;;;;;48.95;22.58;;;;;;;;;;2080055;28;20421;-76
2023/12/08 07:33:31;;;;;;;51.85;22.95;;;;;;;;;;2082215;28;20029;-77
2023/12/08 07:34:51;;;;;;;49.47;22.13;;;;;;;;;;2089624;28;20040;-76
2023/12/08 07:36:12;;;;;;;49.45;21.38;;;;;;;;;;2089035;28;20044;-77
2023/12/08 07:37:33;;;;;;;48.75;22.55;;;;;;;;;;2088702;28;20067;-76
2023/12/08 07:38:55;;;;;;;45.47;19.23;;;;;;;;;;2083906;28;20040;-77
2023/12/08 07:40:16;;;;;;;46.10;19.77;;;;;;;;;;2089693;28;20028;-77
2023/12/08 07:41:37;;;;;;;45.88;21.88;;;;;;;;;;2086676;28;20413;-76
2023/12/08 07:42:58;;;;;;;47.90;21.40;;;;;;;;;;2086352;28;20037;-76
2023/12/08 07:44:19;;;;;;;50.10;22.58;;;;;;;;;;2087490;28;20037;-77
2023/12/08 07:45:40;;;;;;;47.70;21.33;;;;;;;;;;2089458;28;20397;-77
2023/12/08 07:47:01;;;;;;;48.60;21.20;;;;;;;;;;2090517;28;20036;-76
2023/12/08 07:48:21;;;;;;;37.13;19.15;;;;;;;;;;2089208;28;20033;-76
2023/12/08 07:49:42;;;;;;;60.08;23.13;;;;;;;;;;2093059;28;20428;-76
2023/12/08 07:51:04;;;;;;;63.00;24.38;;;;;;;;;;2085869;28;20029;-76
2023/12/08 07:52:25;;;;;;;45.47;22.33;;;;;;;;;;2075142;28;20038;-75